Time;durP1;ratioP1;P1;durP2;ratioP2;P2;SDS_P1;SDS_P2;PMS_P1;PMS_P2;Temp;Humidity;BMP_temperature;BMP_pressure;BME280_temperature;BME280_humidity;BME280_pressure;Samples;Min_cycle;Max_cycle;Signal;HPM_P1;HPM_P2
2023/11/14 00:01:26;;;;;;;1.77;1.67;;;;;;;;;;5113779;28;20207;-85
2023/11/14 00:03:53;;;;;;;2.43;1.50;;;;;;;;;;5105505;28;20200;-85
2023/11/14 00:06:19;;;;;;;2.23;1.60;;;;;;;;;;5093563;28;20204;-85
2023/11/14 00:08:47;;;;;;;2.87;1.90;;;;;;;;;;5102512;28;20207;-85
2023/11/14 00:11:14;;;;;;;1.70;1.60;;;;;;;;;;5100395;28;20200;-85
2023/11/14 00:13:41;;;;;;;6.70;2.20;;;;;;;;;;5113734;28;20192;-85
2023/11/14 00:16:10;;;;;;;3.37;2.10;;;;;;;;;;5111005;28;20239;-85
2023/11/14 00:18:38;;;;;;;4.60;2.00;;;;;;;;;;5103561;28;20582;-85
2023/11/14 00:21:05;;;;;;;2.00;1.80;;;;;;;;;;5113676;28;20199;-85
2023/11/14 00:23:32;;;;;;;3.47;2.17;;;;;;;;;;5114134;28;20657;-85
2023/11/14 00:25:59;;;;;;;4.67;1.80;;;;;;;;;;5113441;28;20722;-85
2023/11/14 00:28:26;;;;;;;3.10;1.77;;;;;;;;;;5113829;28;20658;-85
2023/11/14 00:30:53;;;;;;;1.80;1.70;;;;;;;;;;5109940;28;20201;-85
2023/11/14 00:33:20;;;;;;;1.80;1.70;;;;;;;;;;5104473;28;20203;-85
2023/11/14 00:35:48;;;;;;;3.00;1.73;;;;;;;;;;5113175;28;20227;-85
2023/11/14 00:38:15;;;;;;;3.53;1.60;;;;;;;;;;5113377;28;20677;-85
2023/11/14 00:40:43;;;;;;;1.87;1.77;;;;;;;;;;5109053;28;20231;-86
2023/11/14 00:43:10;;;;;;;2.63;2.10;;;;;;;;;;5093152;28;20235;-84
2023/11/14 00:45:37;;;;;;;3.33;1.87;;;;;;;;;;5111303;28;20203;-84
2023/11/14 00:48:05;;;;;;;3.87;1.80;;;;;;;;;;5113116;28;20204;-85
2023/11/14 00:50:32;;;;;;;2.70;1.80;;;;;;;;;;5099799;28;20203;-84
2023/11/14 00:53:01;;;;;;;3.27;2.10;;;;;;;;;;5101208;28;20243;-84
2023/11/14 00:55:28;;;;;;;2.93;1.77;;;;;;;;;;5098279;28;20230;-85
2023/11/14 00:57:54;;;;;;;3.43;2.50;;;;;;;;;;5113364;28;20206;-85
2023/11/14 01:00:22;;;;;;;3.07;1.97;;;;;;;;;;5112930;28;20203;-85
2023/11/14 01:02:53;;;;;;;2.90;2.27;;;;;;;;;;5112840;28;20239;-84
2023/11/14 01:05:20;;;;;;;2.37;2.17;;;;;;;;;;5112205;28;20203;-84
2023/11/14 01:07:46;;;;;;;3.23;2.00;;;;;;;;;;5112764;28;20199;-86
2023/11/14 01:10:15;;;;;;;2.27;2.00;;;;;;;;;;5112787;28;20207;-86
2023/11/14 01:12:41;;;;;;;2.30;1.87;;;;;;;;;;5098699;28;20216;-86
2023/11/14 01:15:12;;;;;;;2.20;2.00;;;;;;;;;;5112861;28;20223;-86
2023/11/14 01:17:39;;;;;;;1.87;1.73;;;;;;;;;;5113195;28;20290;-86
2023/11/14 01:20:08;;;;;;;2.13;1.90;;;;;;;;;;5112600;28;20207;-86
2023/11/14 01:22:35;;;;;;;2.17;1.80;;;;;;;;;;5112810;28;20199;-86
2023/11/14 01:25:02;;;;;;;3.37;1.83;;;;;;;;;;5103277;28;20769;-86
2023/11/14 01:27:31;;;;;;;1.90;1.80;;;;;;;;;;5095525;28;20207;-85
2023/11/14 01:29:57;;;;;;;2.27;1.80;;;;;;;;;;5112583;28;20200;-85
2023/11/14 01:32:24;;;;;;;2.07;1.80;;;;;;;;;;5098536;28;20214;-85
2023/11/14 01:34:51;;;;;;;2.40;1.77;;;;;;;;;;5112224;28;20223;-85
2023/11/14 01:37:18;;;;;;;1.90;1.80;;;;;;;;;;5099034;28;20222;-86
2023/11/14 01:39:45;;;;;;;2.00;1.77;;;;;;;;;;5112519;28;21482;-85
2023/11/14 01:42:12;;;;;;;1.80;1.70;;;;;;;;;;5112688;28;20258;-86
2023/11/14 01:44:40;;;;;;;2.47;1.60;;;;;;;;;;5112023;28;20199;-86
2023/11/14 01:47:07;;;;;;;5.57;2.00;;;;;;;;;;5112627;28;20598;-86
2023/11/14 01:49:34;;;;;;;2.53;2.10;;;;;;;;;;5102304;28;20200;-86
2023/11/14 01:52:01;;;;;;;2.83;1.87;;;;;;;;;;5108940;28;20681;-85
2023/11/14 01:54:28;;;;;;;2.80;1.50;;;;;;;;;;5112539;28;20222;-86
2023/11/14 01:56:55;;;;;;;3.13;1.90;;;;;;;;;;5112027;28;20211;-85
2023/11/14 01:59:23;;;;;;;1.73;1.60;;;;;;;;;;5100895;28;20602;-86
2023/11/14 02:01:51;;;;;;;1.90;1.77;;;;;;;;;;5109911;28;20215;-85
2023/11/14 02:04:21;;;;;;;2.77;1.73;;;;;;;;;;5112214;28;20203;-86
2023/11/14 02:06:48;;;;;;;2.60;2.33;;;;;;;;;;5106248;28;20208;-86
2023/11/14 02:09:15;;;;;;;2.23;2.03;;;;;;;;;;5091951;28;20216;-85
2023/11/14 02:11:43;;;;;;;1.77;1.67;;;;;;;;;;5111347;28;20206;-86
2023/11/14 02:14:11;;;;;;;1.70;1.60;;;;;;;;;;5099092;28;20208;-85
2023/11/14 02:16:47;;;;;;;2.70;2.03;;;;;;;;;;5110743;28;20648;-85
2023/11/14 02:19:15;;;;;;;2.13;1.90;;;;;;;;;;5098022;28;20239;-86
2023/11/14 02:21:43;;;;;;;3.10;2.00;;;;;;;;;;5112075;28;20588;-86
2023/11/14 02:24:14;;;;;;;2.77;2.57;;;;;;;;;;5110093;28;20203;-86
2023/11/14 02:26:44;;;;;;;2.40;1.60;;;;;;;;;;5100774;28;20199;-86
2023/11/14 02:29:14;;;;;;;2.80;1.80;;;;;;;;;;5108542;28;20716;-87
2023/11/14 02:31:41;;;;;;;2.23;1.77;;;;;;;;;;5091877;28;20228;-85
2023/11/14 02:34:09;;;;;;;1.80;1.70;;;;;;;;;;5108751;28;20620;-86
2023/11/14 02:36:37;;;;;;;1.90;1.80;;;;;;;;;;5111433;28;20230;-85
2023/11/14 02:39:04;;;;;;;1.90;1.80;;;;;;;;;;5107578;28;20211;-85
2023/11/14 02:41:31;;;;;;;2.40;2.20;;;;;;;;;;5090975;28;20238;-86
2023/11/14 02:43:59;;;;;;;2.67;1.63;;;;;;;;;;5109123;28;20199;-84
2023/11/14 02:46:26;;;;;;;3.80;2.33;;;;;;;;;;5111749;28;20200;-85
2023/11/14 02:48:53;;;;;;;2.70;2.00;;;;;;;;;;5111332;28;20211;-86
2023/11/14 02:51:20;;;;;;;3.90;1.67;;;;;;;;;;5111692;28;20214;-86
2023/11/14 02:53:49;;;;;;;1.70;1.60;;;;;;;;;;5111273;28;20688;-86
2023/11/14 02:56:16;;;;;;;2.33;1.60;;;;;;;;;;5111891;28;20263;-84
2023/11/14 02:58:43;;;;;;;1.73;1.63;;;;;;;;;;5111887;28;20214;-86
2023/11/14 03:01:11;;;;;;;2.20;1.70;;;;;;;;;;5112055;28;20215;-86
2023/11/14 03:03:38;;;;;;;2.30;1.70;;;;;;;;;;5111458;28;20208;-85
2023/11/14 03:06:05;;;;;;;1.73;1.63;;;;;;;;;;5111116;28;20208;-85
2023/11/14 03:08:32;;;;;;;2.23;1.73;;;;;;;;;;5098018;28;20196;-85
2023/11/14 03:10:59;;;;;;;2.07;1.90;;;;;;;;;;5111490;28;20202;-85
2023/11/14 03:13:26;;;;;;;2.37;1.77;;;;;;;;;;5111100;28;20203;-86
2023/11/14 03:15:53;;;;;;;4.30;1.70;;;;;;;;;;5111497;28;20605;-85
2023/11/14 03:18:21;;;;;;;2.20;1.70;;;;;;;;;;5111108;28;20212;-86
2023/11/14 03:20:48;;;;;;;2.40;1.80;;;;;;;;;;5111462;28;20663;-86
2023/11/14 03:23:15;;;;;;;3.23;1.90;;;;;;;;;;5097746;28;20203;-86
2023/11/14 03:25:42;;;;;;;1.73;1.63;;;;;;;;;;5111032;28;20706;-86
2023/11/14 03:28:09;;;;;;;2.07;1.93;;;;;;;;;;5107030;28;20207;-85
2023/11/14 03:30:36;;;;;;;1.70;1.60;;;;;;;;;;5108265;28;20211;-86
2023/11/14 03:33:05;;;;;;;2.17;1.83;;;;;;;;;;5114782;28;20222;-85
2023/11/14 03:35:34;;;;;;;1.87;1.73;;;;;;;;;;5113877;28;20232;-86
2023/11/14 03:38:01;;;;;;;1.80;1.70;;;;;;;;;;5102325;28;20211;-86
2023/11/14 03:40:26;;;;;;;3.80;2.30;;;;;;;;;;5114792;28;20268;-85
2023/11/14 03:42:53;;;;;;;2.47;2.27;;;;;;;;;;5114978;28;20227;-86
2023/11/14 03:45:20;;;;;;;6.03;5.00;;;;;;;;;;5114731;28;20215;-86
2023/11/14 03:47:47;;;;;;;3.93;2.93;;;;;;;;;;5114658;28;20206;-87
2023/11/14 03:50:13;;;;;;;3.70;2.90;;;;;;;;;;5114951;28;20617;-85
2023/11/14 03:52:43;;;;;;;4.80;2.97;;;;;;;;;;5114831;28;20226;-86
2023/11/14 03:55:10;;;;;;;2.40;2.17;;;;;;;;;;5099806;28;20303;-86
2023/11/14 03:57:37;;;;;;;2.60;2.30;;;;;;;;;;5114850;28;20264;-87
2023/11/14 04:00:05;;;;;;;2.73;2.33;;;;;;;;;;5114056;28;20199;-87
2023/11/14 04:02:32;;;;;;;1.87;1.73;;;;;;;;;;5114803;28;20218;-87
2023/11/14 04:04:59;;;;;;;1.83;1.73;;;;;;;;;;5114761;28;20200;-87
2023/11/14 04:07:26;;;;;;;3.27;2.10;;;;;;;;;;5114942;28;20207;-87
2023/11/14 04:09:54;;;;;;;2.17;1.93;;;;;;;;;;5114531;28;20216;-87
2023/11/14 04:12:21;;;;;;;16.00;12.83;;;;;;;;;;5114342;28;20212;-87
2023/11/14 04:14:48;;;;;;;19.40;15.03;;;;;;;;;;5114363;28;20219;-87
2023/11/14 04:17:15;;;;;;;11.80;10.27;;;;;;;;;;5114803;28;20231;-87
2023/11/14 04:19:44;;;;;;;6.67;5.67;;;;;;;;;;5114400;28;20214;-87
2023/11/14 04:22:11;;;;;;;4.67;4.27;;;;;;;;;;5114793;28;20203;-87
2023/11/14 04:24:38;;;;;;;2.97;2.27;;;;;;;;;;5114681;28;20272;-87
2023/11/14 04:27:06;;;;;;;2.93;1.90;;;;;;;;;;5114583;28;20204;-86
2023/11/14 04:29:33;;;;;;;1.90;1.80;;;;;;;;;;5114494;28;20203;-87
2023/11/14 04:32:00;;;;;;;2.77;2.57;;;;;;;;;;5114461;28;20626;-86
2023/11/14 04:34:27;;;;;;;3.37;2.17;;;;;;;;;;5113957;28;20207;-86
2023/11/14 04:36:54;;;;;;;2.73;1.93;;;;;;;;;;5109741;28;20274;-81
2023/11/14 04:39:21;;;;;;;3.17;2.20;;;;;;;;;;5111069;28;20203;-84
2023/11/14 04:41:48;;;;;;;4.13;2.13;;;;;;;;;;5114027;28;20610;-87
2023/11/14 04:44:16;;;;;;;5.20;2.50;;;;;;;;;;5100167;28;20196;-85
2023/11/14 04:46:44;;;;;;;2.87;2.67;;;;;;;;;;5113500;28;20636;-85
2023/11/14 04:49:10;;;;;;;3.83;3.53;;;;;;;;;;5113198;28;20622;-85
2023/11/14 04:51:37;;;;;;;5.60;5.10;;;;;;;;;;5113093;28;20207;-85
2023/11/14 04:54:04;;;;;;;5.60;5.10;;;;;;;;;;5099942;28;20226;-85
2023/11/14 04:56:31;;;;;;;4.10;3.70;;;;;;;;;;5113326;28;20711;-85
2023/11/14 04:58:58;;;;;;;3.97;2.53;;;;;;;;;;5113141;28;20563;-85
2023/11/14 05:01:26;;;;;;;2.13;1.93;;;;;;;;;;5112236;28;20204;-85
2023/11/14 05:03:53;;;;;;;2.03;1.90;;;;;;;;;;5100524;28;20215;-86
2023/11/14 05:06:20;;;;;;;2.40;2.20;;;;;;;;;;5097902;28;20208;-86
2023/11/14 05:08:47;;;;;;;2.63;1.87;;;;;;;;;;5101407;28;20203;-85
2023/11/14 05:11:13;;;;;;;2.13;2.00;;;;;;;;;;5107881;28;20204;-86
2023/11/14 05:13:41;;;;;;;3.57;3.23;;;;;;;;;;5092794;28;20704;-89
2023/11/14 05:16:10;;;;;;;3.07;2.77;;;;;;;;;;5108849;28;20231;-85
2023/11/14 05:18:38;;;;;;;4.47;2.27;;;;;;;;;;5113179;28;20207;-85
2023/11/14 05:21:05;;;;;;;2.07;1.80;;;;;;;;;;5112549;28;20678;-84
2023/11/14 05:23:32;;;;;;;2.60;2.40;;;;;;;;;;5112840;28;20200;-85
2023/11/14 05:25:59;;;;;;;2.03;1.83;;;;;;;;;;5112183;28;20677;-85
2023/11/14 05:28:25;;;;;;;1.90;1.80;;;;;;;;;;5112291;28;20210;-85
2023/11/14 05:30:52;;;;;;;2.27;1.77;;;;;;;;;;5112374;28;20636;-85
2023/11/14 05:33:19;;;;;;;1.87;1.30;;;;;;;;;;5100952;28;20682;-85
2023/11/14 05:35:48;;;;;;;2.50;2.00;;;;;;;;;;5109537;28;20586;-85
2023/11/14 05:38:15;;;;;;;2.17;2.00;;;;;;;;;;5112159;28;20214;-86
2023/11/14 05:40:41;;;;;;;2.73;2.20;;;;;;;;;;5104204;28;20203;-85
2023/11/14 05:43:08;;;;;;;4.60;2.83;;;;;;;;;;5106974;28;20302;-86
2023/11/14 05:45:35;;;;;;;4.23;2.67;;;;;;;;;;5112530;28;20265;-85
2023/11/14 05:48:04;;;;;;;4.10;2.73;;;;;;;;;;5098246;28;20204;-86
2023/11/14 05:50:31;;;;;;;7.17;3.97;;;;;;;;;;5103212;28;20262;-85
2023/11/14 05:52:59;;;;;;;5.33;3.97;;;;;;;;;;5093426;28;20204;-86
2023/11/14 05:55:26;;;;;;;3.70;2.90;;;;;;;;;;5111784;28;20207;-85
2023/11/14 05:57:53;;;;;;;5.47;3.50;;;;;;;;;;5095388;28;20224;-85
2023/11/14 06:00:20;;;;;;;6.10;5.07;;;;;;;;;;5110454;28;20200;-86
2023/11/14 06:02:47;;;;;;;5.00;4.50;;;;;;;;;;5111754;28;20214;-86
2023/11/14 06:05:14;;;;;;;2.97;2.77;;;;;;;;;;5098677;28;20210;-86
2023/11/14 06:07:40;;;;;;;3.90;3.60;;;;;;;;;;5111932;28;20206;-85
2023/11/14 06:10:12;;;;;;;3.07;2.77;;;;;;;;;;5105455;28;20200;-84
2023/11/14 06:12:39;;;;;;;2.73;2.53;;;;;;;;;;5105295;28;20207;-85
2023/11/14 06:15:08;;;;;;;3.27;2.70;;;;;;;;;;5111465;28;20685;-84
2023/11/14 06:17:35;;;;;;;4.53;3.73;;;;;;;;;;5111173;28;20230;-85
2023/11/14 06:20:06;;;;;;;4.87;4.47;;;;;;;;;;5111411;28;20308;-85
2023/11/14 06:22:33;;;;;;;5.80;4.57;;;;;;;;;;5109986;28;20294;-85
2023/11/14 06:25:02;;;;;;;4.47;3.90;;;;;;;;;;5099615;28;20206;-84
2023/11/14 06:27:30;;;;;;;3.67;3.27;;;;;;;;;;5109360;28;20207;-84
2023/11/14 06:29:57;;;;;;;4.03;3.50;;;;;;;;;;5100783;28;20211;-84
2023/11/14 06:32:25;;;;;;;5.87;3.50;;;;;;;;;;5108341;28;20742;-84
2023/11/14 06:34:52;;;;;;;6.23;3.47;;;;;;;;;;5101003;28;20248;-85
2023/11/14 06:37:19;;;;;;;6.97;4.97;;;;;;;;;;5094085;28;20710;-84
2023/11/14 06:39:46;;;;;;;12.90;4.37;;;;;;;;;;5101475;28;20203;-84
2023/11/14 06:42:13;;;;;;;5.43;4.20;;;;;;;;;;5093934;28;20591;-84
2023/11/14 06:44:44;;;;;;;6.53;4.20;;;;;;;;;;5101849;28;20207;-84
2023/11/14 06:47:12;;;;;;;7.13;4.40;;;;;;;;;;5110940;28;20747;-84
2023/11/14 06:49:38;;;;;;;8.93;5.40;;;;;;;;;;5099507;28;20192;-84
2023/11/14 06:52:05;;;;;;;5.33;3.97;;;;;;;;;;5091116;28;20204;-84
2023/11/14 06:54:32;;;;;;;8.70;4.30;;;;;;;;;;5090976;28;20200;-83
2023/11/14 06:56:59;;;;;;;6.13;4.13;;;;;;;;;;5096470;28;20219;-84
2023/11/14 06:59:26;;;;;;;5.40;3.53;;;;;;;;;;5109535;28;20681;-84
2023/11/14 07:01:54;;;;;;;3.50;2.87;;;;;;;;;;5111974;28;20244;-84
2023/11/14 07:04:21;;;;;;;4.20;3.27;;;;;;;;;;5103161;28;20203;-84
2023/11/14 07:06:48;;;;;;;2.67;2.47;;;;;;;;;;5100418;28;20212;-84
2023/11/14 07:09:15;;;;;;;3.10;2.77;;;;;;;;;;5114767;28;20689;-84
2023/11/14 07:11:44;;;;;;;4.87;2.90;;;;;;;;;;5101065;28;20222;-83
2023/11/14 07:14:12;;;;;;;3.90;3.20;;;;;;;;;;5114897;28;20750;-83
2023/11/14 07:16:39;;;;;;;9.73;4.50;;;;;;;;;;5107738;28;20220;-84
2023/11/14 07:19:07;;;;;;;5.17;4.03;;;;;;;;;;5107978;28;20204;-84
2023/11/14 07:21:35;;;;;;;5.73;3.83;;;;;;;;;;5114865;28;20195;-84
2023/11/14 07:24:03;;;;;;;6.40;4.67;;;;;;;;;;5100205;28;20201;-84
2023/11/14 07:26:30;;;;;;;13.50;7.83;;;;;;;;;;5102342;28;20195;-84
2023/11/14 07:28:57;;;;;;;3.60;3.13;;;;;;;;;;5113116;28;20268;-84
2023/11/14 07:31:24;;;;;;;6.70;4.20;;;;;;;;;;5094075;28;20205;-84
2023/11/14 07:33:51;;;;;;;4.67;3.77;;;;;;;;;;5107558;28;20207;-83
2023/11/14 07:36:19;;;;;;;4.20;3.80;;;;;;;;;;5102907;28;20206;-83
2023/11/14 07:38:45;;;;;;;6.27;4.10;;;;;;;;;;5111945;28;20207;-83
2023/11/14 07:41:12;;;;;;;10.03;6.23;;;;;;;;;;5094009;28;20287;-83
2023/11/14 07:43:40;;;;;;;12.17;6.57;;;;;;;;;;5107585;28;20208;-83
2023/11/14 07:46:09;;;;;;;8.03;5.70;;;;;;;;;;5104295;28;20588;-83
2023/11/14 07:48:36;;;;;;;11.33;5.83;;;;;;;;;;5110072;28;20197;-83
2023/11/14 07:51:04;;;;;;;6.80;4.83;;;;;;;;;;5094047;28;20223;-84
2023/11/14 07:53:32;;;;;;;4.77;3.70;;;;;;;;;;5107112;28;20203;-83
2023/11/14 07:56:00;;;;;;;7.03;4.53;;;;;;;;;;5093797;28;20207;-83
2023/11/14 07:58:29;;;;;;;5.00;3.20;;;;;;;;;;5098367;28;20662;-83
2023/11/14 08:00:56;;;;;;;85.20;32.33;;;;;;;;;;5113445;28;20203;-83
2023/11/14 08:03:24;;;;;;;17.37;8.13;;;;;;;;;;5113744;28;20230;-84
2023/11/14 08:05:52;;;;;;;4.03;2.17;;;;;;;;;;5113843;28;20227;-83
2023/11/14 08:08:18;;;;;;;2.20;1.90;;;;;;;;;;5109302;28;20953;-83
2023/11/14 08:10:47;;;;;;;2.57;1.87;;;;;;;;;;5093269;28;20598;-82
2023/11/14 08:13:13;;;;;;;2.07;1.57;;;;;;;;;;5111999;28;20207;-82
2023/11/14 08:15:40;;;;;;;4.97;2.13;;;;;;;;;;5113253;28;20677;-83
2023/11/14 08:18:07;;;;;;;3.03;2.00;;;;;;;;;;5107919;28;20612;-83
2023/11/14 08:20:34;;;;;;;2.40;2.20;;;;;;;;;;5092954;28;20667;-82
2023/11/14 08:23:00;;;;;;;3.93;2.70;;;;;;;;;;5093058;28;20204;-83
2023/11/14 08:25:27;;;;;;;9.00;4.77;;;;;;;;;;5093034;28;20203;-83
2023/11/14 08:27:56;;;;;;;4.97;3.50;;;;;;;;;;5106215;28;20203;-84
2023/11/14 08:30:27;;;;;;;6.00;3.50;;;;;;;;;;5093276;28;20231;-83
2023/11/14 08:32:54;;;;;;;6.87;3.83;;;;;;;;;;5093229;28;20211;-82
2023/11/14 08:35:24;;;;;;;5.07;3.63;;;;;;;;;;5093355;28;20204;-83
2023/11/14 08:37:52;;;;;;;6.60;3.43;;;;;;;;;;5100830;28;20223;-82
2023/11/14 08:40:19;;;;;;;4.50;3.20;;;;;;;;;;5112073;28;20299;-83
2023/11/14 08:42:48;;;;;;;6.90;3.90;;;;;;;;;;5112816;28;20230;-82
2023/11/14 08:45:17;;;;;;;7.23;4.30;;;;;;;;;;5111175;28;20302;-82
2023/11/14 08:47:43;;;;;;;5.83;3.83;;;;;;;;;;5093077;28;20196;-82
2023/11/14 08:50:10;;;;;;;5.23;3.77;;;;;;;;;;5094058;28;20200;-82
2023/11/14 08:52:38;;;;;;;6.53;3.10;;;;;;;;;;5112834;28;20288;-82
2023/11/14 08:55:06;;;;;;;3.70;3.13;;;;;;;;;;5110104;28;20670;-81
2023/11/14 08:57:33;;;;;;;5.43;4.00;;;;;;;;;;5101561;28;20309;-82
2023/11/14 08:59:59;;;;;;;7.03;3.77;;;;;;;;;;5111977;28;20200;-82
2023/11/14 09:02:28;;;;;;;4.67;3.10;;;;;;;;;;5112805;28;20746;-83
2023/11/14 09:04:54;;;;;;;3.73;3.37;;;;;;;;;;5098546;28;20195;-82
2023/11/14 09:07:21;;;;;;;3.90;3.50;;;;;;;;;;5113204;28;20211;-82
2023/11/14 09:09:48;;;;;;;3.20;2.83;;;;;;;;;;5098200;28;20294;-82
2023/11/14 09:12:15;;;;;;;4.60;4.03;;;;;;;;;;5101917;28;20215;-82
2023/11/14 09:14:41;;;;;;;6.03;5.27;;;;;;;;;;5105500;28;20558;-82
2023/11/14 09:17:09;;;;;;;6.30;4.60;;;;;;;;;;5091528;28;20224;-82
2023/11/14 09:19:38;;;;;;;5.20;4.27;;;;;;;;;;5105209;28;20247;-82
2023/11/14 09:22:05;;;;;;;6.07;4.60;;;;;;;;;;5092070;28;20200;-81
2023/11/14 09:24:32;;;;;;;5.73;4.20;;;;;;;;;;5096466;28;20203;-82
2023/11/14 09:26:59;;;;;;;5.93;4.07;;;;;;;;;;5111984;28;20200;-82
2023/11/14 09:29:26;;;;;;;9.10;5.50;;;;;;;;;;5093187;28;20208;-82
2023/11/14 09:31:53;;;;;;;4.23;3.83;;;;;;;;;;5104681;28;20205;-82
2023/11/14 09:34:19;;;;;;;2.90;2.60;;;;;;;;;;5098513;28;20192;-81
2023/11/14 09:36:47;;;;;;;2.40;1.77;;;;;;;;;;5111923;28;20223;-81
2023/11/14 09:39:14;;;;;;;1.30;1.20;;;;;;;;;;5105106;28;20678;-81
2023/11/14 09:41:41;;;;;;;2.93;1.63;;;;;;;;;;5105173;28;20234;-80
2023/11/14 09:44:10;;;;;;;1.27;1.20;;;;;;;;;;5111301;28;20630;-81
2023/11/14 09:46:37;;;;;;;1.27;1.17;;;;;;;;;;5097500;28;20687;-82
2023/11/14 09:49:04;;;;;;;1.57;1.47;;;;;;;;;;5091620;28;20204;-81
2023/11/14 09:51:32;;;;;;;3.37;1.30;;;;;;;;;;5091347;28;20265;-80
2023/11/14 09:54:00;;;;;;;1.33;1.23;;;;;;;;;;5091287;28;20236;-81
2023/11/14 09:56:27;;;;;;;2.03;1.70;;;;;;;;;;5105562;28;20209;-80
2023/11/14 09:58:56;;;;;;;1.57;1.47;;;;;;;;;;5104225;28;20232;-80
2023/11/14 10:01:23;;;;;;;1.37;1.27;;;;;;;;;;5104390;28;20209;-80
2023/11/14 10:03:49;;;;;;;1.20;1.10;;;;;;;;;;5098553;28;20572;-80
2023/11/14 10:06:16;;;;;;;1.47;1.33;;;;;;;;;;5096534;28;20210;-80
2023/11/14 10:08:43;;;;;;;2.20;1.27;;;;;;;;;;5099291;28;20571;-80
2023/11/14 10:11:14;;;;;;;1.30;1.20;;;;;;;;;;5097301;28;20210;-80
2023/11/14 10:13:41;;;;;;;2.10;1.10;;;;;;;;;;5102563;28;20255;-80
2023/11/14 10:16:19;;;;;;;1.20;1.10;;;;;;;;;;5090856;28;20208;-81
2023/11/14 10:18:47;;;;;;;1.50;1.40;;;;;;;;;;5090983;28;20226;-81
2023/11/14 10:21:26;;;;;;;1.07;1.07;;;;;;;;;;5094770;28;20198;-80
2023/11/14 10:23:54;;;;;;;9.40;4.10;;;;;;;;;;5098757;28;20203;-80
2023/11/14 10:26:22;;;;;;;5.17;4.67;;;;;;;;;;5110502;28;20549;-80
2023/11/14 10:28:54;;;;;;;7.80;6.73;;;;;;;;;;5110819;28;20222;-81
2023/11/14 10:31:34;;;;;;;18.90;8.13;;;;;;;;;;5090885;28;20200;-80
2023/11/14 10:34:02;;;;;;;7.27;6.37;;;;;;;;;;5106813;28;20694;-81
2023/11/14 10:36:28;;;;;;;11.13;7.03;;;;;;;;;;5101290;28;20219;-81
2023/11/14 10:39:05;;;;;;;6.40;5.73;;;;;;;;;;5097929;28;20682;-80
2023/11/14 10:41:33;;;;;;;6.33;5.23;;;;;;;;;;5103981;28;20306;-80
2023/11/14 10:44:07;;;;;;;7.43;5.00;;;;;;;;;;5108685;28;20739;-80
2023/11/14 10:46:34;;;;;;;5.73;5.10;;;;;;;;;;5107480;28;20202;-81
2023/11/14 10:49:08;;;;;;;8.00;5.17;;;;;;;;;;5108957;28;20196;-81
2023/11/14 10:51:37;;;;;;;9.13;6.57;;;;;;;;;;5108082;28;20234;-83
2023/11/14 10:54:06;;;;;;;12.63;8.87;;;;;;;;;;5094548;28;20207;-81
2023/11/14 10:56:37;;;;;;;10.10;5.53;;;;;;;;;;5094721;28;20306;-83
2023/11/14 10:59:04;;;;;;;7.67;4.80;;;;;;;;;;5094907;28;20318;-84
2023/11/14 11:01:34;;;;;;;5.83;4.67;;;;;;;;;;5110137;28;20234;-81
2023/11/14 11:04:00;;;;;;;5.57;4.60;;;;;;;;;;5105964;28;20261;-80
2023/11/14 11:06:27;;;;;;;9.50;6.23;;;;;;;;;;5094282;28;20211;-80
2023/11/14 11:08:54;;;;;;;5.10;4.23;;;;;;;;;;5103778;28;20210;-81
2023/11/14 11:11:23;;;;;;;7.90;4.60;;;;;;;;;;5114811;28;20226;-80
2023/11/14 11:13:52;;;;;;;5.13;4.60;;;;;;;;;;5114883;28;20204;-80
2023/11/14 11:16:41;;;;;;;5.37;4.17;;;;;;;;;;5097261;28;20196;-80
2023/11/14 11:19:10;;;;;;;5.40;4.90;;;;;;;;;;5107650;28;20622;-83
2023/11/14 11:21:37;;;;;;;9.47;4.53;;;;;;;;;;5094732;28;20197;-81
2023/11/14 11:24:09;;;;;;;6.70;4.87;;;;;;;;;;5108371;28;20589;-80
2023/11/14 11:27:12;;;;;;;7.17;5.10;;;;;;;;;;5106598;28;20230;-81
2023/11/14 11:29:54;;;;;;;7.57;5.00;;;;;;;;;;5101001;28;20198;-81
2023/11/14 11:32:28;;;;;;;5.70;5.17;;;;;;;;;;5114128;28;20211;-80
2023/11/14 11:35:26;;;;;;;6.37;4.90;;;;;;;;;;5113952;28;20573;-80
2023/11/14 11:37:54;;;;;;;6.13;5.53;;;;;;;;;;5094132;28;20220;-80
2023/11/14 11:40:25;;;;;;;5.53;4.87;;;;;;;;;;5093613;28;20561;-80
2023/11/14 11:42:53;;;;;;;6.30;5.70;;;;;;;;;;5094029;28;20223;-80
2023/11/14 11:45:41;;;;;;;6.43;5.80;;;;;;;;;;5093937;28;20234;-80
2023/11/14 11:48:34;;;;;;;5.90;4.90;;;;;;;;;;5093394;28;20295;-80
2023/11/14 11:51:23;;;;;;;10.97;5.20;;;;;;;;;;5084010;28;20290;-79
2023/11/14 11:53:50;;;;;;;5.40;4.70;;;;;;;;;;5091329;28;20689;-80
2023/11/14 11:56:47;;;;;;;5.43;4.83;;;;;;;;;;5093739;28;20757;-80
2023/11/14 11:59:14;;;;;;;8.10;4.40;;;;;;;;;;5021351;28;20626;-80
2023/11/14 12:01:49;;;;;;;4.57;4.17;;;;;;;;;;5090914;28;20196;-80
2023/11/14 12:04:16;;;;;;;6.47;5.40;;;;;;;;;;5104311;28;20233;-80
2023/11/14 12:06:44;;;;;;;10.07;5.30;;;;;;;;;;5099631;28;20195;-80
2023/11/14 12:09:12;;;;;;;5.00;4.50;;;;;;;;;;5101681;28;20681;-80
2023/11/14 12:11:39;;;;;;;5.70;4.60;;;;;;;;;;5106745;28;20203;-80
2023/11/14 12:14:06;;;;;;;5.37;4.27;;;;;;;;;;5092503;28;20208;-80
2023/11/14 12:16:36;;;;;;;4.80;4.37;;;;;;;;;;5093200;28;20260;-80
2023/11/14 12:19:04;;;;;;;5.97;5.03;;;;;;;;;;5105109;28;20744;-80
2023/11/14 12:21:32;;;;;;;7.13;5.20;;;;;;;;;;5099954;28;20194;-80
2023/11/14 12:24:02;;;;;;;5.03;4.43;;;;;;;;;;5099904;28;20208;-80
2023/11/14 12:26:30;;;;;;;4.80;4.30;;;;;;;;;;5093288;28;20601;-80
2023/11/14 12:28:57;;;;;;;7.10;4.60;;;;;;;;;;5092571;28;20214;-80
2023/11/14 12:31:27;;;;;;;10.93;4.90;;;;;;;;;;5092895;28;20254;-80
2023/11/14 12:33:56;;;;;;;5.73;4.67;;;;;;;;;;5094020;28;20218;-80
2023/11/14 12:36:29;;;;;;;5.20;4.03;;;;;;;;;;5113494;28;20201;-80
2023/11/14 12:38:56;;;;;;;4.70;3.83;;;;;;;;;;5109968;28;20769;-80
2023/11/14 12:41:27;;;;;;;5.57;4.33;;;;;;;;;;5101901;28;20227;-80
2023/11/14 12:43:54;;;;;;;4.70;3.90;;;;;;;;;;5109572;28;20195;-80
2023/11/14 12:46:23;;;;;;;6.90;4.53;;;;;;;;;;5103068;28;20206;-80
2023/11/14 12:49:12;;;;;;;3.83;3.53;;;;;;;;;;5098648;28;20201;-80
2023/11/14 12:51:41;;;;;;;6.80;4.03;;;;;;;;;;5099674;28;20203;-80
2023/11/14 12:54:08;;;;;;;4.77;4.23;;;;;;;;;;5112968;28;20203;-80
2023/11/14 12:56:36;;;;;;;4.40;4.10;;;;;;;;;;5098242;28;20210;-80
2023/11/14 12:59:07;;;;;;;4.43;3.53;;;;;;;;;;5103833;28;20812;-80
2023/11/14 13:01:34;;;;;;;5.70;3.37;;;;;;;;;;5105344;28;20211;-80
2023/11/14 13:04:05;;;;;;;6.43;4.20;;;;;;;;;;5092394;28;20207;-80
2023/11/14 13:06:32;;;;;;;4.63;4.20;;;;;;;;;;5092303;28;20199;-80
2023/11/14 13:09:00;;;;;;;5.23;4.40;;;;;;;;;;5102769;28;20206;-80
2023/11/14 13:11:27;;;;;;;5.63;5.13;;;;;;;;;;5098684;28;20199;-80
2023/11/14 13:13:54;;;;;;;5.20;4.53;;;;;;;;;;5112422;28;20213;-80
2023/11/14 13:16:21;;;;;;;4.90;4.33;;;;;;;;;;5094604;28;20210;-80
2023/11/14 13:18:48;;;;;;;9.83;4.60;;;;;;;;;;5102610;28;20226;-80
2023/11/14 13:21:14;;;;;;;4.73;4.23;;;;;;;;;;5094906;28;20228;-81
2023/11/14 13:23:41;;;;;;;4.60;4.20;;;;;;;;;;5102711;28;20202;-80
2023/11/14 13:26:12;;;;;;;4.77;4.27;;;;;;;;;;5094575;28;20209;-80
2023/11/14 13:28:39;;;;;;;5.37;4.53;;;;;;;;;;5091664;28;20261;-80
2023/11/14 13:31:07;;;;;;;5.77;5.27;;;;;;;;;;5105104;28;20671;-80
2023/11/14 13:33:34;;;;;;;4.77;4.00;;;;;;;;;;5104265;28;20204;-80
2023/11/14 13:36:03;;;;;;;5.80;5.30;;;;;;;;;;5106095;28;20206;-80
2023/11/14 13:38:30;;;;;;;4.47;4.07;;;;;;;;;;5091631;28;20226;-80
2023/11/14 13:40:57;;;;;;;5.67;4.43;;;;;;;;;;5091090;28;20289;-80
2023/11/14 13:43:25;;;;;;;14.27;6.83;;;;;;;;;;5091975;28;20286;-80
2023/11/14 13:45:52;;;;;;;10.00;9.00;;;;;;;;;;5111005;28;20219;-80
2023/11/14 13:48:20;;;;;;;4.80;4.23;;;;;;;;;;5098643;28;20216;-80
2023/11/14 13:50:47;;;;;;;4.83;4.03;;;;;;;;;;5091064;28;20629;-80
2023/11/14 13:53:14;;;;;;;7.10;4.67;;;;;;;;;;5104941;28;20197;-81
2023/11/14 13:55:41;;;;;;;4.43;4.03;;;;;;;;;;5091457;28;20202;-80
2023/11/14 13:58:08;;;;;;;4.17;3.77;;;;;;;;;;5104887;28;20589;-80
2023/11/14 14:00:39;;;;;;;6.03;4.70;;;;;;;;;;5098337;28;20233;-80
2023/11/14 14:03:06;;;;;;;4.73;4.30;;;;;;;;;;5096466;28;20207;-80
2023/11/14 14:05:33;;;;;;;5.63;5.13;;;;;;;;;;5091320;28;20223;-80
2023/11/14 14:08:00;;;;;;;6.73;4.77;;;;;;;;;;5104677;28;20203;-81
2023/11/14 14:10:26;;;;;;;5.97;5.37;;;;;;;;;;5091214;28;20209;-80
2023/11/14 14:12:54;;;;;;;4.13;3.83;;;;;;;;;;5091106;28;20214;-80
2023/11/14 14:15:21;;;;;;;5.50;3.60;;;;;;;;;;5091154;28;20202;-80
2023/11/14 14:17:50;;;;;;;5.80;3.80;;;;;;;;;;5105043;28;20200;-80
2023/11/14 14:20:18;;;;;;;4.07;3.60;;;;;;;;;;5100034;28;20224;-80
2023/11/14 14:22:46;;;;;;;5.00;3.97;;;;;;;;;;5094997;28;20199;-80
2023/11/14 14:25:15;;;;;;;5.67;4.10;;;;;;;;;;5101302;28;20628;-80
2023/11/14 14:27:42;;;;;;;5.53;3.93;;;;;;;;;;5110790;28;20207;-79
2023/11/14 14:30:14;;;;;;;11.23;10.00;;;;;;;;;;5110686;28;20208;-80
2023/11/14 14:32:41;;;;;;;28.00;23.50;;;;;;;;;;5092903;28;20224;-80
2023/11/14 14:35:12;;;;;;;7.60;6.87;;;;;;;;;;5090920;28;20200;-80
2023/11/14 14:37:39;;;;;;;10.53;9.13;;;;;;;;;;5104312;28;20212;-80
2023/11/14 14:40:07;;;;;;;13.23;10.47;;;;;;;;;;5090657;28;20230;-80
2023/11/14 14:42:33;;;;;;;9.47;8.57;;;;;;;;;;5104450;28;20277;-80
2023/11/14 14:45:00;;;;;;;6.23;4.83;;;;;;;;;;5103737;28;20205;-80
2023/11/14 14:47:27;;;;;;;3.87;3.40;;;;;;;;;;5091049;28;20227;-80
2023/11/14 14:49:55;;;;;;;5.23;4.20;;;;;;;;;;5103847;28;20203;-80